Time;durP1;ratioP1;P1;durP2;ratioP2;P2;SDS_P1;SDS_P2;PMS_P1;PMS_P2;Temp;Humidity;BMP_temperature;BMP_pressure;BME280_temperature;BME280_humidity;BME280_pressure;Samples;Min_cycle;Max_cycle;Signal;HPM_P1;HPM_P2
2023/10/27 00:00:51;;;;;;;4.45;3.65;;;;;;;17.96;58.42;99328.28;5030534;28;20049;-37
2023/10/27 00:03:18;;;;;;;5.88;4.28;;;;;;;17.96;58.75;99332.84;5029645;28;20037;-37
2023/10/27 00:05:44;;;;;;;5.22;4.35;;;;;;;17.96;58.38;99330.16;5025802;28;20045;-37
2023/10/27 00:08:13;;;;;;;5.65;3.95;;;;;;;17.95;58.63;99328.50;5027365;28;20049;-37
2023/10/27 00:10:40;;;;;;;7.45;4.38;;;;;;;17.94;58.51;99321.47;5025987;28;20061;-36
2023/10/27 00:13:07;;;;;;;4.50;3.85;;;;;;;17.95;58.20;99326.66;5028189;28;20053;-37
2023/10/27 00:15:34;;;;;;;6.05;4.32;;;;;;;17.94;58.79;99333.03;5025078;28;20050;-37
2023/10/27 00:18:00;;;;;;;4.75;3.85;;;;;;;17.94;58.45;99332.22;5023994;28;20521;-36
2023/10/27 00:20:27;;;;;;;4.97;3.65;;;;;;;17.94;58.59;99330.34;5026931;28;20049;-37
2023/10/27 00:22:54;;;;;;;5.50;4.07;;;;;;;17.95;58.66;99326.66;5027973;28;20049;-36
2023/10/27 00:25:20;;;;;;;4.80;4.10;;;;;;;17.95;58.23;99326.66;5026328;28;20046;-36
2023/10/27 00:27:47;;;;;;;5.93;4.55;;;;;;;17.94;58.25;99330.34;5028831;28;20053;-37
2023/10/27 00:30:14;;;;;;;5.50;4.25;;;;;;;17.93;58.30;99325.16;5029342;28;20467;-37
2023/10/27 00:32:40;;;;;;;6.30;4.25;;;;;;;17.94;58.74;99318.81;5029940;28;20111;-37
2023/10/27 00:35:07;;;;;;;5.57;4.30;;;;;;;17.93;58.75;99314.44;5024480;28;20129;-36
2023/10/27 00:37:35;;;;;;;4.80;3.85;;;;;;;17.93;58.63;99315.28;5025147;28;20045;-37
2023/10/27 00:40:02;;;;;;;5.18;4.20;;;;;;;17.92;58.68;99313.63;5026549;28;20038;-37
2023/10/27 00:42:29;;;;;;;6.13;3.97;;;;;;;17.93;58.38;99301.03;5026927;28;20054;-37
2023/10/27 00:44:56;;;;;;;4.20;3.47;;;;;;;17.91;58.62;99301.25;5027537;28;20073;-37
2023/10/27 00:47:26;;;;;;;5.22;4.05;;;;;;;17.91;58.79;99308.44;5029503;28;20081;-36
2023/10/27 00:49:54;;;;;;;4.93;3.92;;;;;;;17.91;58.48;99305.78;5020520;28;20049;-37
2023/10/27 00:52:24;;;;;;;5.38;4.50;;;;;;;17.91;58.80;99298.56;5022478;28;20437;-37
2023/10/27 00:54:53;;;;;;;4.97;4.05;;;;;;;17.91;58.48;99297.72;5025682;28;20438;-36
2023/10/27 00:57:22;;;;;;;5.25;3.85;;;;;;;17.91;58.49;99300.41;5026565;28;20056;-36
2023/10/27 00:59:50;;;;;;;5.75;4.45;;;;;;;17.91;58.58;99292.38;5025875;28;20056;-37
2023/10/27 01:02:18;;;;;;;5.10;3.97;;;;;;;17.90;58.58;99288.03;5028306;28;20055;-36
2023/10/27 01:04:45;;;;;;;5.53;4.38;;;;;;;17.90;58.51;99286.19;5022021;28;20133;-37
2023/10/27 01:07:13;;;;;;;5.25;4.13;;;;;;;17.90;58.90;99288.03;5025335;28;20483;-37
2023/10/27 01:09:40;;;;;;;5.47;3.90;;;;;;;17.89;58.70;99281.00;5026566;28;20104;-36
2023/10/27 01:12:07;;;;;;;6.05;4.20;;;;;;;17.89;58.64;99283.69;5028663;28;20049;-37
2023/10/27 01:14:33;;;;;;;4.97;4.00;;;;;;;17.88;58.55;99273.97;5025613;28;20061;-37
2023/10/27 01:17:00;;;;;;;5.30;3.92;;;;;;;17.88;58.35;99280.16;5025614;28;20049;-36
2023/10/27 01:19:26;;;;;;;5.13;4.03;;;;;;;17.89;58.96;99281.84;5023731;28;20045;-37
2023/10/27 01:21:53;;;;;;;4.60;3.88;;;;;;;17.88;58.45;99277.50;5027952;28;20049;-37
2023/10/27 01:24:22;;;;;;;4.57;4.05;;;;;;;17.87;59.02;99275.00;5025679;28;20065;-36
2023/10/27 01:26:49;;;;;;;5.00;4.03;;;;;;;17.87;58.84;99273.16;5024630;28;20096;-37
2023/10/27 01:29:16;;;;;;;4.63;3.80;;;;;;;17.87;58.87;99278.53;5022396;28;20053;-37
2023/10/27 01:31:43;;;;;;;5.03;3.97;;;;;;;17.89;58.73;99273.81;5026006;28;20052;-37
2023/10/27 01:34:10;;;;;;;4.20;3.50;;;;;;;17.87;58.91;99270.47;5026483;28;20674;-37
2023/10/27 01:36:37;;;;;;;4.65;3.67;;;;;;;17.87;58.45;99266.97;5027735;28;20047;-36
2023/10/27 01:39:03;;;;;;;4.28;3.20;;;;;;;17.88;58.87;99276.66;5025523;28;20398;-37
2023/10/27 01:41:30;;;;;;;4.68;3.60;;;;;;;17.89;58.79;99275.63;5028331;28;20049;-37
2023/10/27 01:43:57;;;;;;;4.30;3.47;;;;;;;17.87;58.48;99273.16;5025505;28;20407;-36
2023/10/27 01:46:23;;;;;;;5.03;3.88;;;;;;;17.87;58.58;99265.13;5026186;28;20144;-36
2023/10/27 01:48:50;;;;;;;3.67;3.03;;;;;;;17.87;58.98;99265.13;5027312;28;20060;-37
2023/10/27 01:51:17;;;;;;;3.95;3.53;;;;;;;17.87;58.49;99266.97;5024216;28;20049;-37
2023/10/27 01:53:43;;;;;;;4.57;3.58;;;;;;;17.87;58.87;99262.44;5019474;28;20049;-37
2023/10/27 01:56:10;;;;;;;4.07;3.38;;;;;;;17.86;58.65;99262.63;5026030;28;20131;-37
2023/10/27 01:58:40;;;;;;;4.05;3.15;;;;;;;17.86;58.45;99263.47;5025883;28;20049;-36
2023/10/27 02:01:06;;;;;;;4.03;3.08;;;;;;;17.86;58.98;99257.28;5023164;28;20369;-36
2023/10/27 02:03:33;;;;;;;3.90;3.42;;;;;;;17.87;58.53;99253.56;5023893;28;20056;-36
2023/10/27 02:06:00;;;;;;;4.10;3.38;;;;;;;17.86;58.78;99266.16;5023586;28;20138;-36
2023/10/27 02:08:26;;;;;;;4.32;3.28;;;;;;;17.87;58.52;99261.59;5028007;28;20068;-36
2023/10/27 02:10:53;;;;;;;4.13;3.72;;;;;;;17.86;58.59;99255.44;5029693;28;20395;-36
2023/10/27 02:13:20;;;;;;;4.22;3.40;;;;;;;17.86;58.51;99266.16;5026830;28;20053;-37
2023/10/27 02:15:47;;;;;;;3.83;2.78;;;;;;;17.87;59.07;99259.75;5027435;28;20348;-37
2023/10/27 02:18:13;;;;;;;4.15;3.30;;;;;;;17.88;58.97;99263.25;5026147;28;20049;-36
2023/10/27 02:20:40;;;;;;;3.60;2.75;;;;;;;17.87;58.81;99253.56;5023811;28;20053;-36
2023/10/27 02:23:06;;;;;;;3.67;2.97;;;;;;;17.87;58.82;99257.06;5025434;28;20041;-36
2023/10/27 02:25:33;;;;;;;3.95;3.10;;;;;;;17.86;59.36;99250.06;5025504;28;20049;-37
2023/10/27 02:28:00;;;;;;;3.38;2.90;;;;;;;17.87;59.11;99256.25;5026660;28;20392;-37
2023/10/27 02:30:26;;;;;;;3.20;2.75;;;;;;;17.86;59.00;99250.06;5025722;28;20136;-36
2023/10/27 02:32:53;;;;;;;3.08;2.78;;;;;;;17.86;58.93;99251.91;5024697;28;20434;-37
2023/10/27 02:35:20;;;;;;;3.95;2.80;;;;;;;17.86;59.14;99258.09;5023207;28;20056;-36
2023/10/27 02:37:47;;;;;;;3.80;2.90;;;;;;;17.86;59.02;99257.28;5026236;28;20129;-37
2023/10/27 02:40:13;;;;;;;4.93;3.08;;;;;;;17.85;58.79;99245.72;5026673;28;20322;-37
2023/10/27 02:42:40;;;;;;;3.05;2.67;;;;;;;17.85;58.75;99255.59;5024719;28;20632;-37
2023/10/27 02:45:07;;;;;;;3.38;3.08;;;;;;;17.86;58.94;99249.25;5024369;28;20048;-37
2023/10/27 02:47:34;;;;;;;4.00;3.38;;;;;;;17.85;59.19;99251.09;5023260;28;20136;-36
2023/10/27 02:50:01;;;;;;;3.70;3.00;;;;;;;17.84;58.47;99246.72;5022345;28;20353;-37
2023/10/27 02:52:27;;;;;;;4.10;3.30;;;;;;;17.84;59.02;99248.59;5025308;28;20084;-37
2023/10/27 02:54:54;;;;;;;3.97;2.78;;;;;;;17.84;58.89;99248.59;5024316;28;20045;-37
2023/10/27 02:57:21;;;;;;;5.00;3.13;;;;;;;17.84;58.62;99240.53;5021742;28;20068;-37
2023/10/27 02:59:48;;;;;;;4.05;3.00;;;;;;;17.84;58.86;99243.22;5026100;28;20136;-37
2023/10/27 03:02:15;;;;;;;3.25;2.72;;;;;;;17.84;58.99;99245.91;5027510;28;20046;-37
2023/10/27 03:04:41;;;;;;;4.50;3.42;;;;;;;17.84;58.85;99245.91;5024174;28;20111;-37
2023/10/27 03:07:11;;;;;;;3.00;2.40;;;;;;;17.82;58.68;99235.38;5023284;28;20438;-36
2023/10/27 03:09:37;;;;;;;3.15;2.78;;;;;;;17.83;58.85;99237.03;5024148;28;20056;-36
2023/10/27 03:12:04;;;;;;;4.43;3.10;;;;;;;17.82;59.27;99235.38;5023077;28;20099;-36
2023/10/27 03:14:31;;;;;;;2.90;2.60;;;;;;;17.83;59.18;99237.03;5021895;28;20120;-36
2023/10/27 03:16:57;;;;;;;2.85;2.30;;;;;;;17.84;59.10;99237.88;5029395;28;20050;-36
2023/10/27 03:19:24;;;;;;;3.53;2.97;;;;;;;17.83;58.51;99229.00;5027948;28;20357;-36
2023/10/27 03:21:51;;;;;;;3.75;2.97;;;;;;;17.82;59.28;99242.59;5020333;28;20100;-36
2023/10/27 03:24:17;;;;;;;2.80;2.50;;;;;;;17.82;58.55;99234.56;5024402;28;20389;-36
2023/10/27 03:26:44;;;;;;;3.58;3.00;;;;;;;17.82;58.84;99232.72;5025827;28;20057;-43
2023/10/27 03:29:10;;;;;;;2.60;1.95;;;;;;;17.82;58.74;99231.88;5023424;28;20057;-36
2023/10/27 03:31:37;;;;;;;2.88;2.20;;;;;;;17.82;58.89;99232.72;5025396;28;20400;-36
2023/10/27 03:34:04;;;;;;;3.10;2.50;;;;;;;17.81;59.13;99225.69;5028859;28;20083;-36
2023/10/27 03:36:30;;;;;;;4.07;2.85;;;;;;;17.82;58.70;99226.53;5026910;28;20050;-36
2023/10/27 03:38:57;;;;;;;3.30;2.45;;;;;;;17.82;58.83;99223.84;5028592;28;20081;-36
2023/10/27 03:41:24;;;;;;;2.88;2.35;;;;;;;17.81;59.07;99227.53;5029599;28;20434;-36
2023/10/27 03:43:50;;;;;;;2.83;2.35;;;;;;;17.82;59.21;99231.88;5029845;28;20115;-36
2023/10/27 03:46:17;;;;;;;2.28;1.95;;;;;;;17.83;58.89;99228.16;5030581;28;20122;-37
2023/10/27 03:48:44;;;;;;;2.95;2.65;;;;;;;17.82;59.14;99226.53;5029971;28;20356;-36
2023/10/27 03:51:11;;;;;;;2.55;2.13;;;;;;;17.81;58.80;99224.84;5027390;28;20417;-37
2023/10/27 03:53:38;;;;;;;2.88;2.30;;;;;;;17.81;58.80;99225.69;5024853;28;20200;-36
2023/10/27 03:56:04;;;;;;;2.20;2.00;;;;;;;17.81;59.08;99233.72;5028234;28;20084;-37
2023/10/27 03:58:31;;;;;;;2.80;2.30;;;;;;;17.80;58.91;99223.19;5026958;28;20042;-37
2023/10/27 04:01:13;;;;;;;2.83;2.22;;;;;;;17.82;58.83;99234.56;5026792;28;20344;-36
2023/10/27 04:03:40;;;;;;;2.40;2.10;;;;;;;17.80;59.07;99226.69;5023857;28;20065;-36
2023/10/27 04:06:07;;;;;;;2.83;2.55;;;;;;;17.81;59.03;99223.00;5025614;28;20045;-36
2023/10/27 04:08:34;;;;;;;2.42;2.13;;;;;;;17.80;58.94;99221.34;5027013;28;20049;-37
2023/10/27 04:11:00;;;;;;;3.08;2.40;;;;;;;17.81;58.76;99224.84;5027168;28;20058;-36
2023/10/27 04:13:27;;;;;;;2.28;2.08;;;;;;;17.81;59.07;99230.19;5027832;28;20045;-37
2023/10/27 04:15:54;;;;;;;2.40;2.13;;;;;;;17.80;58.88;99223.19;5026693;28;20136;-37
2023/10/27 04:18:20;;;;;;;2.42;2.20;;;;;;;17.80;59.01;99226.69;5028135;28;20053;-36
2023/10/27 04:20:47;;;;;;;2.33;2.08;;;;;;;17.80;58.73;99232.06;5024632;28;20057;-37
2023/10/27 04:23:14;;;;;;;2.40;2.20;;;;;;;17.80;58.98;99226.69;5027120;28;20129;-37
2023/10/27 04:25:40;;;;;;;2.42;2.22;;;;;;;17.81;59.03;99228.38;5029317;28;20119;-37
2023/10/27 04:28:07;;;;;;;2.60;2.15;;;;;;;17.81;58.85;99225.69;5028845;28;20120;-36
2023/10/27 04:30:36;;;;;;;2.00;1.70;;;;;;;17.81;59.26;99227.53;5027058;28;20418;-36
2023/10/27 04:33:04;;;;;;;2.50;2.03;;;;;;;17.80;58.97;99229.38;5028220;28;20045;-37
2023/10/27 04:35:32;;;;;;;2.00;1.77;;;;;;;17.81;59.11;99224.84;5024963;28;20469;-37
2023/10/27 04:37:59;;;;;;;2.45;1.80;;;;;;;17.79;59.00;99226.91;5025565;28;20100;-37
2023/10/27 04:40:28;;;;;;;2.55;2.30;;;;;;;17.80;59.26;99231.22;5024719;28;20064;-37
2023/10/27 04:42:57;;;;;;;2.25;1.90;;;;;;;17.80;59.14;99229.38;5025374;28;20046;-36
2023/10/27 04:45:25;;;;;;;2.33;1.90;;;;;;;17.81;58.79;99235.56;5026879;28;20049;-36
2023/10/27 04:47:51;;;;;;;2.25;2.05;;;;;;;17.79;58.92;99230.41;5028686;28;20057;-36
2023/10/27 04:50:19;;;;;;;3.30;2.33;;;;;;;17.80;59.11;99232.06;5024865;28;20049;-37
2023/10/27 04:52:46;;;;;;;2.83;2.30;;;;;;;17.79;58.86;99234.94;5025359;28;20041;-36
2023/10/27 04:55:13;;;;;;;1.85;1.75;;;;;;;17.79;59.05;99229.56;5027327;28;20483;-36
2023/10/27 04:57:39;;;;;;;2.05;1.85;;;;;;;17.78;58.89;99226.06;5027050;28;20129;-36
2023/10/27 05:00:09;;;;;;;1.73;1.63;;;;;;;17.79;59.09;99232.25;5025249;28;20860;-37
2023/10/27 05:02:36;;;;;;;2.20;1.83;;;;;;;17.79;59.00;99233.09;5020760;28;20362;-37
2023/10/27 05:05:03;;;;;;;2.85;2.00;;;;;;;17.79;59.17;99224.22;5022178;28;20041;-36
2023/10/27 05:07:30;;;;;;;2.28;1.98;;;;;;;17.78;58.79;99222.56;5023487;28;20141;-36
2023/10/27 05:09:57;;;;;;;2.58;1.95;;;;;;;17.78;59.46;99225.25;5024361;28;20362;-37
2023/10/27 05:12:23;;;;;;;2.10;1.77;;;;;;;17.79;59.33;99226.91;5023891;28;20053;-37
2023/10/27 05:14:50;;;;;;;1.63;1.50;;;;;;;17.79;59.26;99229.56;5026473;28;20524;-37
2023/10/27 05:17:17;;;;;;;1.98;1.85;;;;;;;17.79;59.32;99232.25;5025529;28;20053;-37
2023/10/27 05:19:44;;;;;;;2.20;2.00;;;;;;;17.79;58.99;99226.91;5022956;28;20057;-37
2023/10/27 05:22:13;;;;;;;1.92;1.73;;;;;;;17.79;58.98;99224.22;5023712;28;20473;-37
2023/10/27 05:24:40;;;;;;;2.38;1.77;;;;;;;17.78;59.12;99220.72;5024367;28;20136;-37
2023/10/27 05:27:06;;;;;;;2.35;1.73;;;;;;;17.78;58.83;99225.25;5025249;28;20099;-37
2023/10/27 05:29:33;;;;;;;1.88;1.70;;;;;;;17.78;59.42;99220.72;5026393;28;20053;-37
2023/10/27 05:32:00;;;;;;;2.00;1.77;;;;;;;17.78;59.01;99225.25;5022869;28;20448;-37
2023/10/27 05:34:27;;;;;;;2.80;2.25;;;;;;;17.77;59.29;99216.38;5023761;28;20045;-37
2023/10/27 05:36:57;;;;;;;1.75;1.60;;;;;;;17.79;59.23;99221.53;5027940;28;20057;-37
2023/10/27 05:39:26;;;;;;;1.80;1.60;;;;;;;17.78;59.38;99219.88;5025949;28;20132;-38
2023/10/27 05:41:53;;;;;;;2.97;1.92;;;;;;;17.78;59.01;99225.25;5023200;28;20076;-37
2023/10/27 05:44:20;;;;;;;4.07;1.75;;;;;;;17.76;59.22;99220.88;5024346;28;20322;-37
2023/10/27 05:46:47;;;;;;;2.53;1.98;;;;;;;17.77;58.87;99227.09;5022153;28;20076;-37
2023/10/27 05:49:13;;;;;;;2.88;2.05;;;;;;;17.77;59.16;99216.38;5025927;28;20210;-37
2023/10/27 05:51:40;;;;;;;3.92;2.00;;;;;;;17.77;59.29;99221.75;5023926;28;20057;-37
2023/10/27 05:54:07;;;;;;;2.28;1.85;;;;;;;17.76;58.92;99220.88;5020232;28;20271;-37
2023/10/27 05:56:33;;;;;;;1.98;1.70;;;;;;;17.76;59.21;99223.56;5025591;28;20452;-37
2023/10/27 05:59:00;;;;;;;2.92;2.10;;;;;;;17.76;59.50;99220.06;5024320;28;20103;-37
2023/10/27 06:01:26;;;;;;;3.35;1.90;;;;;;;17.74;59.23;99214.91;5025039;28;20053;-37
2023/10/27 06:03:57;;;;;;;5.35;2.58;;;;;;;17.75;59.01;99223.75;5024145;28;20133;-37
2023/10/27 06:06:25;;;;;;;3.67;2.10;;;;;;;17.75;59.22;99221.09;5020704;28;20517;-38
2023/10/27 06:08:52;;;;;;;2.88;2.28;;;;;;;17.74;59.10;99222.94;5023414;28;20471;-37
2023/10/27 06:11:18;;;;;;;3.17;2.15;;;;;;;17.74;59.15;99225.63;5023669;28;20041;-38
2023/10/27 06:13:45;;;;;;;4.38;2.50;;;;;;;17.73;59.51;99226.63;5021254;28;20519;-38
2023/10/27 06:16:12;;;;;;;5.47;2.25;;;;;;;17.74;59.22;99222.09;5020650;28;20045;-38
2023/10/27 06:18:39;;;;;;;3.13;2.20;;;;;;;17.73;59.24;99226.63;5023581;28;20056;-38
2023/10/27 06:21:06;;;;;;;3.78;2.30;;;;;;;17.74;58.83;99219.41;5025451;28;20145;-36
2023/10/27 06:23:33;;;;;;;2.17;1.70;;;;;;;17.74;59.24;99228.31;5021909;28;20054;-36
2023/10/27 06:26:00;;;;;;;3.55;2.17;;;;;;;17.74;59.35;99230.97;5025202;28;20046;-37
2023/10/27 06:28:26;;;;;;;3.50;2.40;;;;;;;17.73;58.78;99229.28;5024066;28;20147;-37
2023/10/27 06:30:53;;;;;;;3.53;2.28;;;;;;;17.74;58.94;99230.97;5022233;28;20104;-36
2023/10/27 06:33:20;;;;;;;2.67;1.67;;;;;;;17.74;59.23;99232.81;5024754;28;20049;-37
2023/10/27 06:35:47;;;;;;;2.83;1.80;;;;;;;17.75;59.08;99229.13;5025404;28;20046;-37
2023/10/27 06:38:14;;;;;;;3.42;2.10;;;;;;;17.74;58.93;99233.66;5025821;28;20041;-37
2023/10/27 06:40:40;;;;;;;2.65;1.90;;;;;;;17.74;58.93;99233.66;5027875;28;20499;-36
2023/10/27 06:43:07;;;;;;;3.55;1.90;;;;;;;17.75;58.86;99234.47;5023731;28;20052;-37
2023/10/27 06:45:34;;;;;;;3.00;1.80;;;;;;;17.75;59.21;99235.31;5024511;28;20451;-37
2023/10/27 06:48:00;;;;;;;3.13;1.77;;;;;;;17.76;59.15;99238.81;5025691;28;20045;-37
2023/10/27 06:50:27;;;;;;;3.13;1.90;;;;;;;17.76;59.20;99233.47;5023048;28;20081;-37
2023/10/27 06:52:54;;;;;;;3.40;1.80;;;;;;;17.76;59.19;99231.59;5027571;28;20452;-37
2023/10/27 06:55:21;;;;;;;2.20;1.63;;;;;;;17.76;59.09;99228.91;5029058;28;20081;-37
2023/10/27 06:57:48;;;;;;;5.00;1.80;;;;;;;17.76;59.18;99234.28;5024863;28;20048;-37
2023/10/27 07:00:15;;;;;;;3.13;1.92;;;;;;;17.77;58.92;99235.13;5022333;28;20046;-37
2023/10/27 07:02:42;;;;;;;2.78;1.92;;;;;;;17.76;59.25;99234.28;5022730;28;20392;-37
2023/10/27 07:05:23;;;;;;;3.17;1.95;;;;;;;17.77;59.47;99240.50;5022117;28;20496;-37
2023/10/27 07:07:51;;;;;;;2.88;1.85;;;;;;;17.78;59.48;99239.47;5023677;28;20429;-37
2023/10/27 07:10:18;;;;;;;2.90;2.28;;;;;;;17.77;58.96;99235.13;5032216;28;20037;-36
2023/10/27 07:12:44;;;;;;;4.43;1.90;;;;;;;17.78;59.39;99244.00;5031827;28;20065;-37
2023/10/27 07:15:12;;;;;;;3.05;1.95;;;;;;;17.78;59.26;99238.66;5026760;28;20442;-36
2023/10/27 07:17:41;;;;;;;3.58;1.80;;;;;;;17.77;59.80;99251.22;5026032;28;20069;-36
2023/10/27 07:20:08;;;;;;;5.03;2.30;;;;;;;17.77;59.31;99245.84;5024227;28;20655;-37
2023/10/27 07:22:36;;;;;;;4.68;2.15;;;;;;;17.77;59.14;99243.19;5021076;28;20053;-36
2023/10/27 07:25:04;;;;;;;2.75;1.73;;;;;;;17.77;59.42;99251.22;5023417;28;20058;-37
2023/10/27 07:27:31;;;;;;;3.80;2.20;;;;;;;17.76;59.45;99242.31;5031645;28;20045;-36
2023/10/27 07:29:58;;;;;;;3.22;1.90;;;;;;;17.78;59.22;99254.72;5026784;28;20154;-37
2023/10/27 07:32:26;;;;;;;3.72;1.58;;;;;;;17.79;59.50;99253.69;5020339;28;20060;-37
2023/10/27 07:34:53;;;;;;;3.58;1.70;;;;;;;17.78;59.61;99244.00;5024536;28;20368;-37
2023/10/27 07:37:21;;;;;;;3.38;2.00;;;;;;;17.79;59.76;99256.38;5027984;28;20084;-37
2023/10/27 07:39:48;;;;;;;3.20;1.70;;;;;;;17.79;59.51;99256.38;5027756;28;20057;-37
2023/10/27 07:42:15;;;;;;;4.28;2.30;;;;;;;17.78;59.03;99254.72;5030510;28;20049;-36
2023/10/27 07:44:42;;;;;;;2.88;1.70;;;;;;;17.78;59.43;99254.72;5027974;28;20349;-36
2023/10/27 07:47:08;;;;;;;2.20;1.60;;;;;;;17.78;59.22;99260.91;5027613;28;20041;-37
2023/10/27 07:49:35;;;;;;;3.42;1.85;;;;;;;17.79;59.48;99259.06;5025832;28;20092;-36
2023/10/27 07:52:03;;;;;;;3.38;1.80;;;;;;;17.78;59.74;99262.75;5027784;28;20432;-37
2023/10/27 07:54:31;;;;;;;6.63;2.45;;;;;;;17.80;59.19;99260.72;5027774;28;20054;-36
2023/10/27 07:56:59;;;;;;;2.67;1.85;;;;;;;17.79;59.42;99261.72;5028467;28;20426;-36
2023/10/27 07:59:27;;;;;;;3.15;2.15;;;;;;;17.78;59.30;99260.09;5034253;28;20052;-37
2023/10/27 08:01:57;;;;;;;4.32;2.20;;;;;;;17.79;59.60;99254.53;5031502;28;20488;-37
2023/10/27 08:04:26;;;;;;;2.83;1.70;;;;;;;17.80;59.31;99260.72;5031506;28;20143;-36
2023/10/27 08:06:53;;;;;;;3.00;2.03;;;;;;;17.80;59.44;99269.56;5026797;28;20049;-37
2023/10/27 08:09:20;;;;;;;4.22;2.10;;;;;;;17.80;59.45;99260.72;5030586;28;20077;-37
2023/10/27 08:11:49;;;;;;;3.65;1.80;;;;;;;17.80;59.35;99261.53;5028696;28;20393;-37
2023/10/27 08:14:16;;;;;;;2.63;1.50;;;;;;;17.80;59.37;99260.72;5024952;28;20163;-37
2023/10/27 08:16:45;;;;;;;3.40;2.05;;;;;;;17.80;60.03;99261.53;5027774;28;20140;-37
2023/10/27 08:19:12;;;;;;;4.10;2.00;;;;;;;17.79;59.54;99259.88;5028056;28;20054;-37
2023/10/27 08:21:40;;;;;;;2.28;1.70;;;;;;;17.80;59.56;99258.84;5026875;28;20049;-37
2023/10/27 08:24:08;;;;;;;1.90;1.50;;;;;;;17.81;59.39;99263.22;5030120;28;20072;-37
2023/10/27 08:26:35;;;;;;;3.13;1.85;;;;;;;17.81;59.32;99268.56;5028401;28;20091;-37
2023/10/27 08:29:01;;;;;;;4.00;2.50;;;;;;;17.80;59.68;99266.06;5029554;28;20045;-37
2023/10/27 08:31:28;;;;;;;3.30;1.77;;;;;;;17.81;59.59;99268.56;5025964;28;20054;-37
2023/10/27 08:33:59;;;;;;;3.05;1.85;;;;;;;17.82;59.58;99269.41;5031055;28;20049;-37
2023/10/27 08:36:27;;;;;;;3.20;1.52;;;;;;;17.81;59.52;99265.91;5025203;28;20049;-37
2023/10/27 08:38:54;;;;;;;3.80;1.75;;;;;;;17.81;59.37;99267.72;5027168;28;20046;-37
2023/10/27 08:41:25;;;;;;;3.03;1.90;;;;;;;17.81;59.70;99267.72;5030477;28;20049;-37
2023/10/27 08:43:54;;;;;;;2.78;1.70;;;;;;;17.82;59.25;99272.09;5026803;28;20049;-37
2023/10/27 08:46:22;;;;;;;3.70;2.10;;;;;;;17.83;59.09;99276.41;5028294;28;20041;-37
2023/10/27 08:48:49;;;;;;;2.13;1.52;;;;;;;17.83;59.58;99276.41;5029349;28;20042;-37
2023/10/27 08:51:17;;;;;;;2.22;1.70;;;;;;;17.84;59.55;99275.38;5028191;28;20421;-37
2023/10/27 08:53:44;;;;;;;3.05;1.60;;;;;;;17.84;59.40;99281.56;5028292;28;20380;-37
2023/10/27 08:56:14;;;;;;;2.28;1.60;;;;;;;17.85;59.22;99274.34;5029260;28;20052;-37
2023/10/27 08:58:47;;;;;;;3.03;1.73;;;;;;;17.85;59.21;99280.56;5027797;28;20054;-37
2023/10/27 09:01:14;;;;;;;2.83;1.80;;;;;;;17.87;59.08;99283.06;5024187;28;20054;-37
2023/10/27 09:03:41;;;;;;;3.65;1.90;;;;;;;17.86;59.61;99284.91;5024548;28;20057;-37
2023/10/27 09:06:08;;;;;;;4.63;1.80;;;;;;;17.88;59.24;99276.66;5024575;28;20042;-37
2023/10/27 09:08:34;;;;;;;3.15;1.60;;;;;;;17.88;58.96;99284.69;5025271;28;20116;-37
2023/10/27 09:11:01;;;;;;;2.92;1.70;;;;;;;17.88;59.29;99279.34;5029332;28;20338;-37
2023/10/27 09:13:27;;;;;;;2.17;1.65;;;;;;;17.90;59.38;99288.03;5027392;28;20144;-37
2023/10/27 09:15:54;;;;;;;2.80;1.67;;;;;;;17.90;59.46;99285.34;5027205;28;20049;-37
2023/10/27 09:18:36;;;;;;;2.60;1.35;;;;;;;17.89;59.31;99286.34;5027747;28;20073;-37
2023/10/27 09:21:03;;;;;;;3.42;1.90;;;;;;;17.92;59.46;99288.66;5027756;28;20041;-37
2023/10/27 09:23:44;;;;;;;2.85;1.80;;;;;;;17.91;59.62;99289.69;5029256;28;20049;-37
2023/10/27 09:26:11;;;;;;;3.10;1.83;;;;;;;17.92;59.57;99286.81;5025518;28;20283;-37
2023/10/27 09:28:38;;;;;;;3.50;1.52;;;;;;;17.94;59.55;99292.00;4982521;28;20844;-48
2023/10/27 09:31:04;;;;;;;5.88;2.17;;;;;;;17.97;59.69;99287.09;5041734;28;20060;-50
2023/10/27 09:33:31;;;;;;;3.58;1.90;;;;;;;18.01;60.15;99284.84;5020108;28;20387;-47
2023/10/27 09:35:59;;;;;;;3.40;2.65;;;;;;;18.07;59.66;99296.66;5023309;28;20052;-48
2023/10/27 09:38:26;;;;;;;4.22;2.38;;;;;;;18.11;59.84;99293.41;5023106;28;20045;-52
2023/10/27 09:40:56;;;;;;;3.58;2.10;;;;;;;18.14;60.31;99290.34;5025599;28;20231;-46
2023/10/27 09:43:26;;;;;;;4.00;1.85;;;;;;;18.18;59.93;99290.78;5026465;28;20335;-46
2023/10/27 09:46:00;;;;;;;5.38;2.28;;;;;;;18.21;60.54;99295.75;5025726;28;20041;-46
2023/10/27 09:48:29;;;;;;;3.92;2.20;;;;;;;18.25;60.50;99291.66;4985620;28;20061;-42
2023/10/27 09:51:02;;;;;;;5.40;2.00;;;;;;;18.28;60.26;99302.00;5024590;28;20372;-48
2023/10/27 09:53:29;;;;;;;3.35;2.10;;;;;;;18.32;60.37;99299.75;5023852;28;20338;-45
2023/10/27 09:55:57;;;;;;;4.45;2.38;;;;;;;18.35;60.11;99302.06;5037996;28;20460;-46
2023/10/27 09:58:34;;;;;;;3.28;2.20;;;;;;;18.37;60.39;99297.31;5025928;28;20467;-44
2023/10/27 10:01:02;;;;;;;4.93;2.35;;;;;;;18.38;60.05;99294.47;5024993;28;20385;-48
2023/10/27 10:03:29;;;;;;;4.32;2.20;;;;;;;18.40;60.35;99300.44;5026026;28;20053;-46
2023/10/27 10:06:23;;;;;;;3.10;2.03;;;;;;;18.41;60.26;99298.59;5022586;28;20096;-46
2023/10/27 10:09:11;;;;;;;4.38;2.03;;;;;;;18.44;60.14;99299.03;4983676;28;20111;-47
2023/10/27 10:11:47;;;;;;;4.47;2.15;;;;;;;18.47;60.31;99295.16;5021373;28;20081;-47
2023/10/27 10:14:36;;;;;;;2.60;1.80;;;;;;;18.48;59.76;99303.00;5027996;28;20057;-48
2023/10/27 10:17:04;;;;;;;4.40;2.10;;;;;;;18.51;60.39;99301.78;5025399;28;20045;-47
2023/10/27 10:19:51;;;;;;;2.55;1.98;;;;;;;18.52;59.85;99299.94;5022949;28;20140;-47
2023/10/27 10:22:42;;;;;;;3.38;2.05;;;;;;;18.53;59.58;99302.41;5040445;28;20053;-50
2023/10/27 10:25:15;;;;;;;2.95;1.92;;;;;;;18.55;59.84;99303.06;5023338;28;20045;-46
2023/10/27 10:28:06;;;;;;;3.20;2.10;;;;;;;18.56;60.10;99301.19;4986016;28;20665;-47
2023/10/27 10:30:41;;;;;;;4.13;2.05;;;;;;;18.56;59.82;99304.72;5022660;28;20358;-46
2023/10/27 10:33:18;;;;;;;3.35;2.40;;;;;;;18.57;59.89;99309.03;5025251;28;20056;-49
2023/10/27 10:35:49;;;;;;;3.47;1.98;;;;;;;18.59;59.93;99315.06;5019553;28;20237;-45
2023/10/27 10:38:21;;;;;;;7.05;2.17;;;;;;;18.59;59.88;99309.69;5023534;28;20136;-47
2023/10/27 10:40:57;;;;;;;4.30;2.33;;;;;;;18.60;59.64;99305.97;5024689;28;20080;-47
2023/10/27 10:43:25;;;;;;;3.20;1.70;;;;;;;18.64;60.16;99309.09;5022246;28;20093;-47
2023/10/27 10:46:11;;;;;;;2.85;1.98;;;;;;;18.64;59.56;99306.41;5025917;28;20053;-48
2023/10/27 10:48:44;;;;;;;3.28;2.00;;;;;;;18.65;59.61;99308.94;4983569;28;20529;-46
2023/10/27 10:51:18;;;;;;;3.58;1.88;;;;;;;18.66;59.92;99307.06;5026093;28;20412;-46
2023/10/27 10:53:53;;;;;;;4.05;2.03;;;;;;;18.66;59.57;99302.53;5026547;28;20425;-46
2023/10/27 10:56:21;;;;;;;3.25;2.05;;;;;;;18.68;60.01;99305.81;5026489;28;20444;-46
2023/10/27 10:58:48;;;;;;;3.25;2.28;;;;;;;18.70;59.17;99303.00;5027644;28;20064;-45
2023/10/27 11:01:16;;;;;;;2.92;1.85;;;;;;;18.70;59.11;99306.50;5027370;28;20053;-48
2023/10/27 11:04:01;;;;;;;2.25;1.73;;;;;;;18.70;59.23;99306.50;5028278;28;20467;-46
2023/10/27 11:06:29;;;;;;;2.13;1.55;;;;;;;18.72;59.41;99304.44;5027125;28;20136;-48
2023/10/27 11:08:55;;;;;;;4.00;2.25;;;;;;;18.72;59.41;99301.75;4988760;28;20061;-46
2023/10/27 11:11:22;;;;;;;3.15;1.92;;;;;;;18.74;59.61;99299.72;5028404;28;20099;-47
2023/10/27 11:14:03;;;;;;;1.85;1.65;;;;;;;18.75;59.33;99297.88;5026820;28;20056;-49
2023/10/27 11:16:31;;;;;;;2.55;1.60;;;;;;;18.75;59.64;99297.88;5027913;28;20053;-45
2023/10/27 11:18:59;;;;;;;2.88;1.85;;;;;;;18.76;59.55;99294.16;5024190;28;20330;-45
2023/10/27 11:21:27;;;;;;;3.05;1.98;;;;;;;18.77;59.49;99295.81;5026362;28;20054;-47
2023/10/27 11:23:54;;;;;;;3.28;2.00;;;;;;;18.77;59.16;99293.13;5026753;28;20045;-48
2023/10/27 11:26:24;;;;;;;3.25;1.67;;;;;;;18.78;59.54;99299.34;5026955;28;20062;-47
2023/10/27 11:28:54;;;;;;;3.55;2.40;;;;;;;18.79;59.61;99303.69;4989408;28;20394;-46
2023/10/27 11:31:30;;;;;;;2.35;1.65;;;;;;;18.79;59.63;99295.63;5026222;28;20049;-47
2023/10/27 11:34:07;;;;;;;2.72;2.03;;;;;;;18.80;59.25;99294.59;5027124;28;20195;-46
2023/10/27 11:36:42;;;;;;;3.22;2.10;;;;;;;18.81;59.37;99299.75;5023268;28;20127;-45
2023/10/27 11:39:18;;;;;;;3.50;2.03;;;;;;;18.82;59.56;99297.91;5026761;28;20061;-46